createdAt,value
2022-11-28T00:01:17.575Z,4.57
2022-11-28T00:03:43.935Z,4.07
2022-11-28T00:06:10.411Z,12.87
2022-11-28T00:08:36.767Z,5.33
2022-11-28T00:11:07.493Z,4.50
2022-11-28T00:13:34.205Z,4.93
2022-11-28T00:16:02.077Z,5.10
2022-11-28T00:18:28.763Z,6.77
2022-11-28T00:21:15.310Z,4.77
2022-11-28T00:23:42.363Z,3.50
2022-11-28T00:26:13.248Z,4.67
2022-11-28T00:28:39.528Z,3.70
2022-11-28T00:31:05.802Z,4.60
2022-11-28T00:33:32.774Z,3.53
2022-11-28T00:36:00.124Z,4.57
2022-11-28T00:38:26.654Z,6.00
2022-11-28T00:41:06.715Z,5.70
2022-11-28T00:43:33.608Z,4.50
2022-11-28T00:45:59.985Z,4.83
2022-11-28T00:48:26.464Z,6.67
2022-11-28T00:50:52.905Z,3.97
2022-11-28T00:53:19.189Z,5.03
2022-11-28T00:55:45.578Z,5.20
2022-11-28T00:58:11.908Z,5.33
2022-11-28T01:00:38.561Z,6.40
2022-11-28T01:03:05.069Z,5.07
2022-11-28T01:05:31.336Z,3.27
2022-11-28T01:07:57.700Z,4.20
2022-11-28T01:10:24.013Z,4.40
2022-11-28T01:12:50.269Z,3.83
2022-11-28T01:15:16.549Z,7.57
2022-11-28T01:17:42.820Z,4.27
2022-11-28T01:20:09.300Z,4.13
2022-11-28T01:22:35.624Z,4.40
2022-11-28T01:25:01.876Z,3.87
2022-11-28T01:27:28.153Z,4.10
2022-11-28T01:29:54.412Z,3.70
2022-11-28T01:32:20.718Z,5.30
2022-11-28T01:34:47.006Z,5.30
2022-11-28T01:37:13.253Z,3.70
2022-11-28T01:39:39.584Z,4.20
2022-11-28T01:42:05.875Z,3.80
2022-11-28T01:44:32.115Z,4.10
2022-11-28T01:46:58.448Z,5.03
2022-11-28T01:49:35.957Z,4.13
2022-11-28T01:52:07.214Z,3.73
2022-11-28T01:54:35.700Z,18.50
2022-11-28T01:57:03.478Z,4.97
2022-11-28T01:59:32.130Z,4.10
2022-11-28T02:01:58.496Z,6.13
2022-11-28T02:04:27.042Z,3.93
2022-11-28T02:06:53.551Z,2.77
2022-11-28T02:09:19.819Z,4.57
2022-11-28T02:12:07.392Z,2.97
2022-11-28T02:14:39.949Z,4.17
2022-11-28T02:17:15.714Z,3.13
2022-11-28T02:20:10.813Z,5.70
2022-11-28T02:22:42.857Z,3.67
2022-11-28T02:25:28.016Z,3.63
2022-11-28T02:27:54.253Z,3.50
2022-11-28T02:30:22.039Z,3.30
2022-11-28T02:32:54.213Z,3.17
2022-11-28T02:35:26.277Z,3.67
2022-11-28T02:37:58.358Z,5.00
2022-11-28T02:40:38.238Z,3.33
2022-11-28T02:43:29.515Z,4.13
2022-11-28T02:46:01.233Z,7.40
2022-11-28T02:48:53.735Z,4.07
2022-11-28T02:51:30.701Z,3.47
2022-11-28T02:53:57.229Z,4.00
2022-11-28T02:56:24.569Z,3.97
2022-11-28T02:58:50.873Z,3.97
2022-11-28T03:01:19.507Z,4.07
2022-11-28T03:03:52.373Z,6.67
2022-11-28T03:06:24.298Z,3.87
2022-11-28T03:09:26.398Z,3.23
2022-11-28T03:11:52.633Z,3.80
2022-11-28T03:14:34.085Z,4.07
2022-11-28T03:17:13.221Z,4.03
2022-11-28T03:19:43.978Z,4.13
2022-11-28T03:22:12.987Z,3.80
2022-11-28T03:24:50.623Z,4.27
2022-11-28T03:27:28.977Z,3.07
2022-11-28T03:30:05.240Z,4.10
2022-11-28T03:32:32.722Z,3.57
2022-11-28T03:35:06.865Z,3.70
2022-11-28T03:37:35.522Z,4.90
2022-11-28T03:40:10.667Z,3.73
2022-11-28T03:42:40.009Z,4.22
2022-11-28T03:45:17.949Z,3.40
2022-11-28T03:47:45.726Z,11.37
2022-11-28T03:50:17.982Z,3.30
2022-11-28T03:52:49.370Z,3.63
2022-11-28T03:55:21.870Z,3.53
2022-11-28T03:57:51.097Z,4.80
2022-11-28T04:00:17.642Z,4.00
2022-11-28T04:02:53.374Z,4.30
2022-11-28T04:05:28.185Z,3.43
2022-11-28T04:08:00.564Z,3.80
2022-11-28T04:10:29.615Z,4.57
2022-11-28T04:13:01.837Z,4.00
2022-11-28T04:15:51.116Z,3.90
2022-11-28T04:18:24.298Z,2.90
2022-11-28T04:20:58.965Z,4.07
2022-11-28T04:23:26.086Z,4.05
2022-11-28T04:25:54.310Z,4.17
2022-11-28T04:28:22.306Z,4.17
2022-11-28T04:30:50.125Z,3.50
2022-11-28T04:33:17.767Z,3.83
2022-11-28T04:35:46.819Z,3.30
2022-11-28T04:38:14.029Z,4.13
2022-11-28T04:40:47.106Z,3.53
2022-11-28T04:43:19.570Z,3.87
2022-11-28T04:45:50.023Z,3.87
2022-11-28T04:48:16.597Z,4.33
2022-11-28T04:51:03.118Z,4.03
2022-11-28T04:53:35.467Z,4.87
2022-11-28T04:56:11.628Z,3.00
2022-11-28T04:58:43.337Z,4.20
2022-11-28T05:01:11.513Z,4.27
2022-11-28T05:03:42.592Z,4.33
2022-11-28T05:06:09.372Z,4.40
2022-11-28T05:08:35.671Z,3.70
2022-11-28T05:11:02.121Z,4.83
2022-11-28T05:13:28.384Z,4.57
2022-11-28T05:15:54.745Z,3.80
2022-11-28T05:18:21.109Z,4.10
2022-11-28T05:20:47.440Z,4.77
2022-11-28T05:23:13.707Z,4.07
2022-11-28T05:25:40.106Z,6.60
2022-11-28T05:28:06.460Z,4.17
2022-11-28T05:30:32.738Z,5.23
2022-11-28T05:32:59.355Z,4.03
2022-11-28T05:35:25.637Z,4.73
2022-11-28T05:37:52.098Z,3.97
2022-11-28T05:40:18.395Z,3.90
2022-11-28T05:42:44.649Z,4.23
2022-11-28T05:45:11.083Z,3.40
2022-11-28T05:47:37.370Z,3.83
2022-11-28T05:50:03.744Z,4.47
2022-11-28T05:52:32.127Z,4.53
2022-11-28T05:54:59.913Z,3.63
2022-11-28T05:57:26.310Z,4.00
2022-11-28T05:59:52.710Z,4.37
2022-11-28T06:02:19.142Z,4.00
2022-11-28T06:04:45.545Z,4.70
2022-11-28T06:07:11.857Z,4.43
2022-11-28T06:09:38.120Z,4.40
2022-11-28T06:12:04.708Z,4.57
2022-11-28T06:14:30.978Z,4.47
2022-11-28T06:16:57.340Z,4.13
2022-11-28T06:19:23.657Z,4.53
2022-11-28T06:21:50.401Z,4.50
2022-11-28T06:24:16.670Z,4.63
2022-11-28T06:26:42.954Z,4.47
2022-11-28T06:29:09.259Z,3.80
2022-11-28T06:31:35.649Z,5.03
2022-11-28T06:34:01.934Z,3.70
2022-11-28T06:36:28.585Z,4.47
2022-11-28T06:38:54.879Z,3.80
2022-11-28T06:41:22.769Z,4.33
2022-11-28T06:43:49.071Z,4.20
2022-11-28T06:46:17.175Z,4.63
2022-11-28T06:48:43.933Z,4.27
2022-11-28T06:51:10.981Z,4.73
2022-11-28T06:53:37.261Z,5.33
2022-11-28T06:56:07.533Z,6.07
2022-11-28T06:58:34.209Z,6.27
2022-11-28T07:01:34.225Z,6.00
2022-11-28T07:04:01.914Z,4.93
2022-11-28T07:06:28.642Z,3.60
2022-11-28T07:08:58.550Z,5.67
2022-11-28T07:11:29.197Z,4.77
2022-11-28T07:13:55.876Z,4.13
2022-11-28T07:16:33.288Z,6.22
2022-11-28T07:18:59.801Z,6.33
2022-11-28T07:21:26.958Z,3.97
2022-11-28T07:23:53.460Z,3.77
2022-11-28T07:26:21.277Z,5.25
2022-11-28T07:28:48.219Z,3.88
2022-11-28T07:31:21.781Z,4.10
2022-11-28T07:33:49.746Z,5.10
2022-11-28T07:36:17.876Z,5.47
2022-11-28T07:38:46.321Z,3.97
2022-11-28T07:41:13.430Z,4.28
2022-11-28T07:43:40.464Z,4.90
2022-11-28T07:46:07.883Z,3.83
2022-11-28T07:48:34.517Z,4.20
2022-11-28T07:51:04.232Z,4.97
2022-11-28T07:53:30.500Z,4.57
2022-11-28T07:56:00.522Z,4.87
2022-11-28T07:58:26.774Z,5.07
2022-11-28T08:00:53.024Z,5.47
2022-11-28T08:03:19.390Z,4.60
2022-11-28T08:05:49.531Z,5.90
2022-11-28T08:08:16.644Z,5.03
2022-11-28T08:10:43.167Z,5.97
2022-11-28T08:13:09.759Z,6.03
2022-11-28T08:15:39.560Z,6.07
2022-11-28T08:18:06.606Z,8.97
2022-11-28T08:20:33.154Z,6.03
2022-11-28T08:22:59.417Z,6.53
2022-11-28T08:25:25.681Z,6.10
2022-11-28T08:27:51.977Z,5.20
2022-11-28T08:30:18.312Z,8.83
2022-11-28T08:32:44.609Z,9.03
2022-11-28T08:35:10.970Z,8.37
2022-11-28T08:37:37.240Z,10.40
2022-11-28T08:40:03.603Z,5.40
2022-11-28T08:42:29.918Z,9.93
2022-11-28T08:44:56.190Z,10.47
2022-11-28T08:47:22.452Z,8.00
2022-11-28T08:49:48.782Z,7.60
2022-11-28T08:52:15.083Z,8.37
2022-11-28T08:54:41.781Z,7.97
2022-11-28T08:57:08.267Z,14.30
2022-11-28T08:59:34.556Z,8.70
2022-11-28T09:02:00.811Z,8.30
2022-11-28T09:04:27.351Z,11.43
2022-11-28T09:06:53.726Z,8.25
2022-11-28T09:09:19.996Z,10.70
2022-11-28T09:11:46.728Z,7.25
2022-11-28T09:14:13.190Z,8.35
2022-11-28T09:16:39.771Z,7.87
2022-11-28T09:19:09.056Z,11.30
2022-11-28T09:21:35.330Z,19.10
2022-11-28T09:24:01.680Z,11.63
2022-11-28T09:26:29.848Z,9.35
2022-11-28T09:28:56.147Z,9.77
2022-11-28T09:31:22.704Z,8.97
2022-11-28T09:33:49.425Z,12.63
2022-11-28T09:36:17.050Z,10.07
2022-11-28T09:38:43.627Z,8.32
2022-11-28T09:41:28.672Z,8.73
2022-11-28T09:44:08.989Z,9.88
2022-11-28T09:46:36.869Z,8.30
2022-11-28T09:49:05.041Z,11.53
2022-11-28T09:51:34.490Z,10.97
2022-11-28T09:54:03.722Z,7.88
2022-11-28T09:56:30.186Z,9.80
2022-11-28T09:58:58.911Z,9.93
2022-11-28T10:01:30.993Z,10.10
2022-11-28T10:04:11.405Z,15.23
2022-11-28T10:06:58.802Z,12.15
2022-11-28T10:09:52.841Z,12.95
2022-11-28T10:12:37.672Z,17.77
2022-11-28T10:15:06.865Z,17.50
2022-11-28T10:17:39.325Z,17.83
2022-11-28T10:20:10.624Z,18.15
2022-11-28T10:22:47.858Z,19.08
2022-11-28T10:25:17.978Z,21.45
2022-11-28T10:27:44.949Z,16.42
2022-11-28T10:30:16.385Z,18.63
2022-11-28T10:32:45.056Z,21.08
2022-11-28T10:35:11.302Z,17.00
2022-11-28T10:37:38.744Z,21.02
2022-11-28T10:40:17.226Z,21.35
2022-11-28T10:42:53.663Z,17.30
2022-11-28T10:45:39.321Z,21.88
2022-11-28T10:48:38.064Z,21.27
2022-11-28T10:51:09.990Z,22.00
2022-11-28T10:53:54.959Z,21.80
2022-11-28T10:56:39.857Z,19.52
2022-11-28T10:59:28.841Z,21.45
2022-11-28T11:01:56.158Z,21.90
2022-11-28T11:04:26.561Z,22.67
2022-11-28T11:07:08.840Z,28.05
2022-11-28T11:09:36.365Z,24.85
2022-11-28T11:12:03.663Z,23.95
2022-11-28T11:14:35.887Z,23.80
2022-11-28T11:17:02.245Z,26.83
2022-11-28T11:19:30.193Z,29.42
2022-11-28T11:21:59.186Z,29.48
2022-11-28T11:24:25.493Z,29.05
2022-11-28T11:26:51.785Z,37.40
2022-11-28T11:29:23.527Z,25.40
2022-11-28T11:31:51.180Z,29.48
2022-11-28T11:34:18.382Z,37.85
2022-11-28T11:36:45.253Z,25.27
2022-11-28T11:39:11.516Z,26.13
2022-11-28T11:41:44.674Z,27.75
2022-11-28T11:44:13.787Z,30.23
2022-11-28T11:46:52.875Z,31.33
2022-11-28T11:49:27.881Z,31.27
2022-11-28T11:51:58.606Z,26.63
2022-11-28T11:54:24.884Z,30.52
2022-11-28T11:57:05.688Z,30.42
2022-11-28T11:59:43.399Z,33.97
2022-11-28T12:02:24.362Z,38.53
2022-11-28T12:04:55.551Z,34.20
2022-11-28T12:07:26.169Z,32.97
2022-11-28T12:09:54.690Z,39.75
2022-11-28T12:12:26.503Z,39.60
2022-11-28T12:14:52.872Z,40.00
2022-11-28T12:17:47.725Z,42.78
2022-11-28T12:20:22.714Z,36.45
2022-11-28T12:23:27.458Z,37.92
2022-11-28T12:26:04.575Z,32.20
2022-11-28T12:28:49.346Z,38.45
2022-11-28T12:31:24.511Z,49.77
2022-11-28T12:33:57.027Z,31.40
2022-11-28T12:36:26.029Z,38.40
2022-11-28T12:39:00.454Z,39.10
2022-11-28T12:41:44.762Z,33.30
2022-11-28T12:44:23.244Z,37.65
2022-11-28T12:47:07.959Z,35.33
2022-11-28T12:49:54.075Z,48.47
2022-11-28T12:52:23.165Z,43.00
2022-11-28T12:54:49.418Z,38.42
2022-11-28T12:57:54.544Z,41.47
2022-11-28T13:00:22.528Z,33.13
2022-11-28T13:03:03.978Z,39.75
2022-11-28T13:05:49.132Z,29.48
2022-11-28T13:08:37.176Z,33.10
2022-11-28T13:11:13.629Z,39.13
2022-11-28T13:13:43.684Z,42.63
2022-11-28T13:16:27.201Z,33.53
2022-11-28T13:18:53.958Z,40.50
2022-11-28T13:21:32.474Z,38.45
2022-11-28T13:24:10.074Z,38.70
2022-11-28T13:26:42.168Z,37.78
2022-11-28T13:29:16.901Z,38.88
2022-11-28T13:31:50.971Z,37.90
2022-11-28T13:34:18.300Z,40.47
2022-11-28T13:39:47.075Z,34.35
2022-11-28T13:42:52.757Z,40.42
2022-11-28T13:45:32.058Z,37.00
2022-11-28T13:48:00.314Z,45.78
2022-11-28T13:50:29.503Z,23.25
2022-11-28T13:53:03.049Z,44.17
2022-11-28T13:55:38.914Z,39.67
2022-11-28T13:58:17.262Z,41.83
2022-11-28T14:00:58.726Z,33.28
2022-11-28T14:03:26.125Z,41.60
2022-11-28T14:05:57.443Z,40.30
2022-11-28T14:08:35.338Z,47.75
2022-11-28T14:11:11.264Z,40.47
2022-11-28T14:13:45.865Z,35.75
2022-11-28T14:16:25.734Z,37.42
2022-11-28T14:19:10.669Z,38.67
2022-11-28T14:21:52.049Z,38.55
2022-11-28T14:24:44.709Z,40.55
2022-11-28T14:27:22.651Z,40.60
2022-11-28T14:29:50.551Z,41.28
2022-11-28T14:32:34.028Z,33.80
2022-11-28T14:35:01.017Z,52.28
2022-11-28T14:37:28.524Z,39.53
2022-11-28T14:39:56.272Z,39.83
2022-11-28T14:42:58.199Z,34.45
2022-11-28T14:45:30.725Z,35.28
2022-11-28T14:48:06.899Z,43.90
2022-11-28T14:50:39.069Z,46.67
2022-11-28T14:53:40.732Z,42.08
2022-11-28T14:56:27.469Z,29.85
2022-11-28T14:58:56.551Z,38.92
2022-11-28T15:01:46.041Z,38.90
2022-11-28T15:04:30.978Z,35.97
2022-11-28T15:06:59.520Z,37.08
2022-11-28T15:09:25.809Z,42.22
2022-11-28T15:12:16.856Z,40.55
2022-11-28T15:14:45.232Z,39.55
2022-11-28T15:17:13.273Z,40.58
2022-11-28T15:19:47.813Z,49.00
2022-11-28T15:22:29.305Z,40.92
2022-11-28T15:24:55.565Z,35.47
2022-11-28T15:27:26.242Z,37.92
2022-11-28T15:29:55.657Z,44.03
2022-11-28T15:32:22.709Z,37.72
2022-11-28T15:34:53.925Z,35.92
2022-11-28T15:37:20.305Z,37.80
2022-11-28T15:39:48.086Z,33.30
2022-11-28T15:42:21.977Z,35.40
2022-11-28T15:44:51.850Z,35.08
2022-11-28T15:47:19.764Z,38.88
2022-11-28T15:49:46.106Z,35.60
2022-11-28T15:52:16.181Z,30.58
2022-11-28T15:54:43.842Z,37.15
2022-11-28T15:57:21.073Z,31.08
2022-11-28T15:59:47.401Z,31.80
2022-11-28T16:02:22.962Z,39.85
2022-11-28T16:04:51.658Z,45.70
2022-11-28T16:07:18.049Z,53.83
2022-11-28T16:09:55.757Z,46.22
2022-11-28T16:12:22.261Z,48.45
2022-11-28T16:14:49.435Z,52.78
2022-11-28T16:17:20.529Z,46.47
2022-11-28T16:19:49.826Z,50.97
2022-11-28T16:22:19.439Z,48.50
2022-11-28T16:24:47.449Z,47.35
2022-11-28T16:27:45.403Z,48.15
2022-11-28T16:30:28.763Z,44.72
2022-11-28T16:32:55.692Z,43.83
2022-11-28T16:35:38.786Z,38.40
2022-11-28T16:38:06.131Z,40.83
2022-11-28T16:40:32.592Z,38.08
2022-11-28T16:42:59.386Z,48.25
2022-11-28T16:45:27.600Z,55.28
2022-11-28T16:48:08.809Z,51.20
2022-11-28T16:50:35.822Z,52.67
2022-11-28T16:53:02.945Z,43.60
2022-11-28T16:55:29.419Z,57.45
2022-11-28T16:57:58.792Z,52.03
2022-11-28T17:00:25.054Z,46.10
2022-11-28T17:02:52.796Z,46.72
2022-11-28T17:05:19.056Z,43.97
2022-11-28T17:07:45.397Z,52.55
2022-11-28T17:10:12.258Z,48.03
2022-11-28T17:12:39.114Z,47.13
2022-11-28T17:15:07.809Z,58.65
2022-11-28T17:17:35.337Z,43.85
2022-11-28T17:20:01.648Z,68.20
2022-11-28T17:22:38.912Z,51.38
2022-11-28T17:25:07.684Z,58.67
2022-11-28T17:27:33.944Z,50.03
2022-11-28T17:30:00.262Z,49.25
2022-11-28T17:32:26.543Z,45.03
2022-11-28T17:34:52.801Z,44.40
2022-11-28T17:37:19.062Z,35.63
2022-11-28T17:40:05.289Z,51.90
2022-11-28T17:42:31.982Z,43.22
2022-11-28T17:44:58.293Z,44.40
2022-11-28T17:47:24.635Z,53.20
2022-11-28T17:49:51.522Z,51.58
2022-11-28T17:52:19.932Z,44.13
2022-11-28T17:54:46.279Z,43.53
2022-11-28T17:57:12.798Z,50.63
2022-11-28T17:59:39.085Z,48.80
2022-11-28T18:02:05.467Z,47.10
2022-11-28T18:04:34.019Z,48.35
2022-11-28T18:07:01.600Z,47.97
2022-11-28T18:09:29.167Z,52.33
2022-11-28T18:11:55.424Z,33.72
2022-11-28T18:14:21.714Z,42.20
2022-11-28T18:16:48.227Z,38.10
2022-11-28T18:19:14.882Z,53.70
2022-11-28T18:21:41.123Z,38.70
2022-11-28T18:24:07.580Z,42.03
2022-11-28T18:26:33.973Z,44.28
2022-11-28T18:29:00.406Z,40.40
2022-11-28T18:31:27.886Z,45.95
2022-11-28T18:34:00.197Z,47.75
2022-11-28T18:36:28.828Z,37.30
2022-11-28T18:38:58.993Z,45.30
2022-11-28T18:41:25.769Z,42.90
2022-11-28T18:43:55.838Z,35.00
2022-11-28T18:46:22.213Z,43.65
2022-11-28T18:48:48.516Z,35.88
2022-11-28T18:51:19.108Z,33.75
2022-11-28T18:53:45.800Z,29.98
2022-11-28T18:56:12.992Z,32.95
2022-11-28T18:58:40.358Z,36.95
2022-11-28T19:01:10.985Z,31.10
2022-11-28T19:03:37.589Z,34.95
2022-11-28T19:06:04.862Z,35.90
2022-11-28T19:08:31.178Z,35.47
2022-11-28T19:10:57.426Z,31.70
2022-11-28T19:13:23.705Z,43.00
2022-11-28T19:15:49.958Z,31.42
2022-11-28T19:18:16.302Z,40.72
2022-11-28T19:20:43.343Z,40.22
2022-11-28T19:23:09.613Z,28.17
2022-11-28T19:25:35.889Z,28.63
2022-11-28T19:28:02.159Z,38.70
2022-11-28T19:30:28.439Z,31.95
2022-11-28T19:32:55.754Z,28.55
2022-11-28T19:35:22.102Z,30.42
2022-11-28T19:37:48.352Z,38.28
2022-11-28T19:40:14.721Z,33.58
2022-11-28T19:42:40.984Z,23.55
2022-11-28T19:45:07.561Z,26.77
2022-11-28T19:47:33.838Z,26.55
2022-11-28T19:50:00.116Z,23.55
2022-11-28T19:52:27.390Z,19.48
2022-11-28T19:54:53.688Z,22.23
2022-11-28T19:57:20.712Z,24.05
2022-11-28T19:59:47.075Z,20.30
2022-11-28T20:02:13.497Z,21.77
2022-11-28T20:04:40.342Z,26.80
2022-11-28T20:07:07.152Z,19.30
2022-11-28T20:09:33.473Z,26.05
2022-11-28T20:11:59.813Z,25.95
2022-11-28T20:14:27.590Z,26.75
2022-11-28T20:16:53.908Z,24.70
2022-11-28T20:19:20.354Z,26.80
2022-11-28T20:21:46.793Z,27.00
2022-11-28T20:24:13.181Z,33.67
2022-11-28T20:26:40.838Z,34.35
2022-11-28T20:29:07.936Z,35.22
2022-11-28T20:31:38.402Z,26.02
2022-11-28T20:34:05.162Z,22.67
2022-11-28T20:36:31.688Z,28.65
2022-11-28T20:38:58.413Z,22.38
2022-11-28T20:41:25.667Z,24.83
2022-11-28T20:43:52.120Z,28.50
2022-11-28T20:46:23.068Z,22.17
2022-11-28T20:48:49.934Z,19.65
2022-11-28T20:51:20.342Z,20.63
2022-11-28T20:53:47.056Z,26.65
2022-11-28T20:56:17.757Z,24.10
2022-11-28T20:58:44.487Z,19.43
2022-11-28T21:01:21.575Z,17.37
2022-11-28T21:03:48.180Z,16.87
2022-11-28T21:06:14.481Z,24.93
2022-11-28T21:08:40.883Z,19.08
2022-11-28T21:11:08.084Z,25.20
2022-11-28T21:13:34.345Z,16.73
2022-11-28T21:16:05.037Z,19.57
2022-11-28T21:18:31.366Z,20.23
2022-11-28T21:20:57.614Z,22.73
2022-11-28T21:23:23.881Z,20.00
2022-11-28T21:25:50.130Z,19.10
2022-11-28T21:28:16.394Z,19.60
2022-11-28T21:30:44.105Z,26.87
2022-11-28T21:33:11.322Z,37.87
2022-11-28T21:35:38.481Z,23.20
2022-11-28T21:38:04.878Z,26.37
2022-11-28T21:40:31.250Z,19.10
2022-11-28T21:42:57.743Z,24.47
2022-11-28T21:45:24.656Z,24.77
2022-11-28T21:47:51.130Z,26.17
2022-11-28T21:50:17.680Z,24.63
2022-11-28T21:52:43.933Z,27.63
2022-11-28T21:55:10.204Z,30.73
2022-11-28T21:57:36.487Z,23.77
2022-11-28T22:00:03.337Z,33.63
2022-11-28T22:02:30.945Z,29.83
2022-11-28T22:04:58.916Z,24.40
2022-11-28T22:07:25.280Z,18.53
2022-11-28T22:09:51.653Z,23.00
2022-11-28T22:12:17.918Z,18.97
2022-11-28T22:14:44.159Z,17.77
2022-11-28T22:17:10.446Z,17.63
2022-11-28T22:19:36.827Z,22.30
2022-11-28T22:22:03.134Z,20.30
2022-11-28T22:24:29.431Z,21.33
2022-11-28T22:26:55.780Z,16.70
2022-11-28T22:29:22.122Z,19.70
2022-11-28T22:31:48.494Z,15.73
2022-11-28T22:34:14.998Z,24.17
2022-11-28T22:36:41.270Z,16.07
2022-11-28T22:39:07.667Z,15.93
2022-11-28T22:41:33.962Z,16.27
2022-11-28T22:44:01.148Z,21.43
2022-11-28T22:46:27.926Z,15.13
2022-11-28T22:48:54.205Z,13.97
2022-11-28T22:51:22.253Z,18.53
2022-11-28T22:53:52.059Z,7.03
2022-11-28T22:56:18.324Z,11.60
2022-11-28T22:58:44.997Z,6.73
2022-11-28T23:01:12.658Z,7.60
2022-11-28T23:03:41.266Z,7.27
2022-11-28T23:06:12.149Z,9.57
2022-11-28T23:08:38.663Z,8.93
2022-11-28T23:11:08.704Z,8.00
2022-11-28T23:13:35.454Z,11.30
2022-11-28T23:16:10.632Z,11.43
2022-11-28T23:21:03.123Z,7.10
2022-11-28T23:23:30.824Z,7.77
2022-11-28T23:25:57.158Z,10.07
2022-11-28T23:28:23.416Z,12.47
2022-11-28T23:30:49.654Z,8.37
2022-11-28T23:33:15.933Z,8.63
2022-11-28T23:35:42.201Z,7.17
2022-11-28T23:38:08.499Z,9.90
2022-11-28T23:40:34.753Z,7.70
2022-11-28T23:43:01.022Z,9.83
2022-11-28T23:45:27.331Z,11.67
2022-11-28T23:47:53.640Z,10.33
2022-11-28T23:50:19.890Z,8.70
2022-11-28T23:52:46.161Z,11.43
2022-11-28T23:55:12.411Z,9.03
2022-11-28T23:57:38.657Z,8.20
